Time;durP1;ratioP1;P1;durP2;ratioP2;P2;SDS_P1;SDS_P2;PMS_P1;PMS_P2;Temp;Humidity;BMP_temperature;BMP_pressure;BME280_temperature;BME280_humidity;BME280_pressure;Samples;Min_cycle;Max_cycle;Signal;HPM_P1;HPM_P2
2023/07/07 00:00:07;;;;;;;0.40;0.40;;;;;;;;;;4970723;28;20272;-84
2023/07/07 00:02:36;;;;;;;1.03;0.93;;;;;;;;;;4970579;28;20197;-84
2023/07/07 00:05:06;;;;;;;0.80;0.80;;;;;;;;;;4969860;28;20244;-83
2023/07/07 00:07:34;;;;;;;0.67;0.67;;;;;;;;;;4970730;28;20212;-83
2023/07/07 00:10:05;;;;;;;0.60;0.60;;;;;;;;;;4973819;28;20197;-84
2023/07/07 00:12:33;;;;;;;1.27;1.27;;;;;;;;;;4973553;28;20231;-83
2023/07/07 00:15:02;;;;;;;1.70;1.23;;;;;;;;;;4972863;28;20201;-83
2023/07/07 00:17:30;;;;;;;0.97;0.97;;;;;;;;;;4973323;28;20205;-84
2023/07/07 00:20:02;;;;;;;1.33;1.23;;;;;;;;;;4974253;28;20268;-84
2023/07/07 00:22:32;;;;;;;0.50;0.50;;;;;;;;;;4973249;28;20197;-84
2023/07/07 00:25:01;;;;;;;0.40;0.40;;;;;;;;;;4973692;28;20277;-84
2023/07/07 00:27:29;;;;;;;0.40;0.40;;;;;;;;;;4973346;28;20233;-86
2023/07/07 00:29:58;;;;;;;1.43;1.33;;;;;;;;;;4972958;28;20205;-86
2023/07/07 00:32:26;;;;;;;0.40;0.40;;;;;;;;;;4973074;28;20230;-86
2023/07/07 00:34:55;;;;;;;0.40;0.40;;;;;;;;;;4973527;28;20219;-86
2023/07/07 00:37:24;;;;;;;0.40;0.40;;;;;;;;;;4973326;28;20219;-86
2023/07/07 00:39:54;;;;;;;0.40;0.40;;;;;;;;;;4972686;28;20292;-86
2023/07/07 00:42:23;;;;;;;0.40;0.40;;;;;;;;;;4973396;28;20201;-86
2023/07/07 00:45:10;;;;;;;0.97;0.97;;;;;;;;;;4973008;28;20219;-86
2023/07/07 00:47:40;;;;;;;0.40;0.40;;;;;;;;;;4973029;28;20215;-86
2023/07/07 00:50:10;;;;;;;0.30;0.30;;;;;;;;;;4972656;28;20208;-86
2023/07/07 00:52:40;;;;;;;0.40;0.40;;;;;;;;;;4973259;28;20224;-86
2023/07/07 00:55:12;;;;;;;0.40;0.40;;;;;;;;;;4973230;28;20212;-86
2023/07/07 00:57:41;;;;;;;5.37;5.00;;;;;;;;;;4972155;28;20266;-86
2023/07/07 01:00:10;;;;;;;0.70;0.70;;;;;;;;;;4972778;28;20237;-86
2023/07/07 01:02:38;;;;;;;0.40;0.40;;;;;;;;;;4973547;28;20200;-84
2023/07/07 01:05:07;;;;;;;0.40;0.40;;;;;;;;;;4972751;28;20272;-85
2023/07/07 01:07:38;;;;;;;0.30;0.30;;;;;;;;;;4973016;28;20205;-84
2023/07/07 01:10:07;;;;;;;0.40;0.40;;;;;;;;;;4973729;28;20213;-85
2023/07/07 01:12:37;;;;;;;0.33;0.33;;;;;;;;;;4972807;28;20274;-84
2023/07/07 01:15:07;;;;;;;0.83;0.83;;;;;;;;;;4972667;28;20205;-84
2023/07/07 01:17:40;;;;;;;0.30;0.30;;;;;;;;;;4972746;28;20219;-84
2023/07/07 01:20:14;;;;;;;1.47;1.37;;;;;;;;;;4972813;28;20278;-84
2023/07/07 01:22:57;;;;;;;0.50;0.50;;;;;;;;;;4972910;28;20209;-84
2023/07/07 01:25:30;;;;;;;0.40;0.40;;;;;;;;;;5004086;28;20209;-84
2023/07/07 01:28:11;;;;;;;0.90;0.90;;;;;;;;;;4972381;28;20227;-83
2023/07/07 01:30:44;;;;;;;0.40;0.40;;;;;;;;;;4972665;28;20220;-84
2023/07/07 01:33:13;;;;;;;0.30;0.30;;;;;;;;;;4972239;28;20222;-84
2023/07/07 01:35:42;;;;;;;0.40;0.40;;;;;;;;;;4973393;28;20213;-84
2023/07/07 01:38:25;;;;;;;0.30;0.30;;;;;;;;;;4972159;28;20212;-84
2023/07/07 01:40:56;;;;;;;0.40;0.40;;;;;;;;;;4972190;28;20199;-84
2023/07/07 01:43:27;;;;;;;0.30;0.30;;;;;;;;;;4972652;28;20210;-84
2023/07/07 01:46:01;;;;;;;0.30;0.30;;;;;;;;;;4972407;28;20215;-84
2023/07/07 01:48:34;;;;;;;0.40;0.40;;;;;;;;;;4972309;28;20254;-84
2023/07/07 01:51:03;;;;;;;0.30;0.30;;;;;;;;;;4972382;28;20208;-84
2023/07/07 01:53:34;;;;;;;0.40;0.40;;;;;;;;;;4972413;28;20225;-84
2023/07/07 01:56:03;;;;;;;0.40;0.40;;;;;;;;;;4971883;28;20215;-86
2023/07/07 01:58:33;;;;;;;0.70;0.70;;;;;;;;;;4971352;28;20209;-86
2023/07/07 02:01:03;;;;;;;1.17;1.17;;;;;;;;;;4972190;28;20208;-87
2023/07/07 02:03:34;;;;;;;0.60;0.60;;;;;;;;;;4971805;28;20233;-87
2023/07/07 02:06:03;;;;;;;2.80;2.67;;;;;;;;;;4971631;28;20216;-86
2023/07/07 02:08:32;;;;;;;2.33;2.23;;;;;;;;;;4971703;28;20200;-86
2023/07/07 02:11:00;;;;;;;2.73;2.13;;;;;;;;;;4971854;28;20205;-87
2023/07/07 02:13:29;;;;;;;3.23;3.03;;;;;;;;;;4971659;28;20330;-86
2023/07/07 02:15:58;;;;;;;0.70;0.70;;;;;;;;;;4971575;28;20205;-87
2023/07/07 02:18:28;;;;;;;1.57;1.47;;;;;;;;;;4971756;28;20235;-86
2023/07/07 02:20:56;;;;;;;0.47;0.47;;;;;;;;;;4971537;28;20205;-86
2023/07/07 02:23:25;;;;;;;0.97;0.97;;;;;;;;;;4971034;28;20204;-87
2023/07/07 02:25:54;;;;;;;0.60;0.60;;;;;;;;;;4971242;28;20204;-86
2023/07/07 02:28:22;;;;;;;0.80;0.80;;;;;;;;;;4971486;28;20293;-86
2023/07/07 02:30:51;;;;;;;0.40;0.40;;;;;;;;;;4970435;28;20208;-86
2023/07/07 02:33:19;;;;;;;1.07;1.07;;;;;;;;;;4971130;28;20216;-87
2023/07/07 02:35:50;;;;;;;0.73;0.73;;;;;;;;;;4971869;28;20213;-87
2023/07/07 02:38:18;;;;;;;0.70;0.70;;;;;;;;;;4971409;28;20205;-86
2023/07/07 02:40:47;;;;;;;1.23;1.23;;;;;;;;;;4970800;28;20207;-87
2023/07/07 02:43:15;;;;;;;0.67;0.67;;;;;;;;;;4971326;28;20218;-86
2023/07/07 02:45:44;;;;;;;0.70;0.70;;;;;;;;;;4970949;28;20199;-87
2023/07/07 02:48:14;;;;;;;2.10;2.00;;;;;;;;;;4971290;28;20199;-87
2023/07/07 02:50:43;;;;;;;0.40;0.40;;;;;;;;;;4970787;28;20199;-87
2023/07/07 02:53:13;;;;;;;0.80;0.80;;;;;;;;;;4970869;28;20228;-86
2023/07/07 02:55:41;;;;;;;1.37;1.33;;;;;;;;;;4971517;28;20216;-86
2023/07/07 02:58:10;;;;;;;0.50;0.50;;;;;;;;;;4970392;28;20195;-85
2023/07/07 03:00:38;;;;;;;0.80;0.80;;;;;;;;;;4970920;28;20206;-86
2023/07/07 03:03:07;;;;;;;1.90;1.20;;;;;;;;;;4971569;28;20200;-86
2023/07/07 03:05:36;;;;;;;0.57;0.57;;;;;;;;;;4970818;28;20303;-86
2023/07/07 03:08:05;;;;;;;0.50;0.50;;;;;;;;;;4970560;28;20212;-86
2023/07/07 03:10:36;;;;;;;1.53;1.43;;;;;;;;;;4971026;28;20204;-86
2023/07/07 03:13:07;;;;;;;1.07;1.07;;;;;;;;;;4970954;28;20239;-86
2023/07/07 03:15:40;;;;;;;2.37;2.27;;;;;;;;;;4970613;28;20196;-86
2023/07/07 03:18:08;;;;;;;0.60;0.60;;;;;;;;;;4970661;28;20221;-86
2023/07/07 03:20:40;;;;;;;0.50;0.50;;;;;;;;;;4971354;28;20211;-86
2023/07/07 03:23:08;;;;;;;0.53;0.53;;;;;;;;;;4970778;28;20189;-86
2023/07/07 03:25:38;;;;;;;2.40;1.53;;;;;;;;;;4970741;28;20216;-87
2023/07/07 03:28:07;;;;;;;2.20;2.00;;;;;;;;;;4970890;28;20224;-86
2023/07/07 03:30:35;;;;;;;0.70;0.70;;;;;;;;;;4970362;28;20210;-86
2023/07/07 03:33:04;;;;;;;1.90;1.30;;;;;;;;;;4970560;28;20219;-86
2023/07/07 03:35:32;;;;;;;1.50;1.50;;;;;;;;;;4970769;28;20286;-86
2023/07/07 03:38:01;;;;;;;0.87;0.87;;;;;;;;;;4970650;28;20269;-86
2023/07/07 03:40:29;;;;;;;0.60;0.60;;;;;;;;;;4970618;28;20203;-86
2023/07/07 03:42:59;;;;;;;3.97;3.77;;;;;;;;;;4969992;28;20215;-86
2023/07/07 03:45:28;;;;;;;1.07;1.07;;;;;;;;;;4970347;28;20211;-86
2023/07/07 03:47:56;;;;;;;1.70;0.93;;;;;;;;;;4970477;28;20211;-86
2023/07/07 03:50:25;;;;;;;1.13;1.00;;;;;;;;;;4970215;28;20211;-86
2023/07/07 03:52:53;;;;;;;3.90;0.80;;;;;;;;;;4970381;28;20243;-86
2023/07/07 03:55:22;;;;;;;0.43;0.43;;;;;;;;;;4970467;28;20223;-86
2023/07/07 03:57:50;;;;;;;1.63;1.53;;;;;;;;;;4970641;28;20240;-86
2023/07/07 04:00:21;;;;;;;0.40;0.40;;;;;;;;;;4970127;28;20212;-86
2023/07/07 04:02:49;;;;;;;1.40;0.90;;;;;;;;;;4970297;28;20207;-86
2023/07/07 04:05:18;;;;;;;1.13;1.13;;;;;;;;;;4970209;28;20299;-86
2023/07/07 04:07:47;;;;;;;0.90;0.90;;;;;;;;;;4970010;28;20208;-86
2023/07/07 04:10:16;;;;;;;0.60;0.60;;;;;;;;;;4970275;28;20211;-86
2023/07/07 04:12:45;;;;;;;0.53;0.53;;;;;;;;;;4970324;28;20204;-86
2023/07/07 04:15:13;;;;;;;0.40;0.40;;;;;;;;;;4969940;28;20210;-86
2023/07/07 04:17:43;;;;;;;1.70;1.60;;;;;;;;;;4970178;28;20265;-87
2023/07/07 04:20:12;;;;;;;5.93;3.70;;;;;;;;;;4970174;28;20257;-86
2023/07/07 04:22:40;;;;;;;3.83;3.40;;;;;;;;;;4970784;28;20227;-86
2023/07/07 04:25:10;;;;;;;8.47;7.17;;;;;;;;;;4970109;28;20205;-86
2023/07/07 04:27:39;;;;;;;5.30;4.80;;;;;;;;;;4969641;28;20224;-87
2023/07/07 04:30:08;;;;;;;10.87;7.57;;;;;;;;;;4970061;28;20212;-86
2023/07/07 04:32:36;;;;;;;9.80;8.07;;;;;;;;;;4970257;28;20215;-84
2023/07/07 04:35:08;;;;;;;5.13;4.60;;;;;;;;;;4969882;28;20278;-84
2023/07/07 04:37:37;;;;;;;7.70;5.33;;;;;;;;;;4970204;28;20214;-86
2023/07/07 04:40:06;;;;;;;8.47;6.93;;;;;;;;;;4970088;28;20211;-86
2023/07/07 04:42:34;;;;;;;6.87;4.67;;;;;;;;;;4969468;28;20208;-86
2023/07/07 04:45:03;;;;;;;10.07;6.83;;;;;;;;;;4969764;28;20243;-87
2023/07/07 04:47:32;;;;;;;5.93;5.20;;;;;;;;;;4970015;28;20216;-86
2023/07/07 04:50:00;;;;;;;7.93;6.03;;;;;;;;;;4969388;28;20215;-86
2023/07/07 04:52:30;;;;;;;7.80;7.00;;;;;;;;;;4969808;28;20201;-87
2023/07/07 04:54:59;;;;;;;8.47;5.73;;;;;;;;;;4971791;28;20220;-86
2023/07/07 04:57:27;;;;;;;6.43;5.80;;;;;;;;;;4972421;28;20212;-86
2023/07/07 04:59:56;;;;;;;7.10;6.00;;;;;;;;;;4972480;28;20219;-85
2023/07/07 05:02:24;;;;;;;6.67;5.63;;;;;;;;;;4973046;28;20219;-86
2023/07/07 05:04:53;;;;;;;7.40;5.67;;;;;;;;;;4972424;28;20233;-86
2023/07/07 05:07:22;;;;;;;9.10;7.47;;;;;;;;;;4972888;28;20207;-86
2023/07/07 05:09:52;;;;;;;9.00;5.67;;;;;;;;;;4972749;28;20197;-86
2023/07/07 05:12:20;;;;;;;3.20;2.90;;;;;;;;;;4972945;28;20206;-86
2023/07/07 05:14:49;;;;;;;10.73;5.90;;;;;;;;;;4972787;28;20296;-86
2023/07/07 05:17:17;;;;;;;6.97;5.50;;;;;;;;;;4971716;28;20200;-86
2023/07/07 05:19:46;;;;;;;8.70;4.30;;;;;;;;;;4972606;28;20205;-86
2023/07/07 05:22:14;;;;;;;12.10;4.43;;;;;;;;;;4972506;28;20319;-86
2023/07/07 05:24:43;;;;;;;4.63;3.43;;;;;;;;;;4972675;28;20211;-86
2023/07/07 05:27:13;;;;;;;8.63;5.93;;;;;;;;;;4972260;28;20233;-86
2023/07/07 05:29:42;;;;;;;4.63;4.13;;;;;;;;;;4972735;28;20239;-87
2023/07/07 05:32:10;;;;;;;2.30;2.10;;;;;;;;;;4972222;28;20209;-86
2023/07/07 05:34:39;;;;;;;6.70;6.00;;;;;;;;;;4972418;28;20221;-86
2023/07/07 05:37:08;;;;;;;9.13;6.37;;;;;;;;;;4972972;28;20205;-86
2023/07/07 05:39:37;;;;;;;5.97;4.83;;;;;;;;;;4972360;28;20217;-86
2023/07/07 05:42:06;;;;;;;8.10;6.03;;;;;;;;;;4972203;28;20203;-86
2023/07/07 05:44:36;;;;;;;8.00;6.00;;;;;;;;;;4972214;28;20208;-86
2023/07/07 05:47:05;;;;;;;6.20;5.20;;;;;;;;;;4972582;28;20194;-87
2023/07/07 05:49:33;;;;;;;6.67;5.00;;;;;;;;;;4972060;28;20220;-86
2023/07/07 05:52:04;;;;;;;6.40;5.80;;;;;;;;;;4972479;28;20203;-86
2023/07/07 05:54:33;;;;;;;5.47;4.23;;;;;;;;;;4972189;28;20270;-86
2023/07/07 05:57:04;;;;;;;6.87;5.57;;;;;;;;;;4972692;28;20203;-87
2023/07/07 05:59:38;;;;;;;8.33;6.37;;;;;;;;;;4972193;28;20218;-86
2023/07/07 06:02:07;;;;;;;6.47;4.33;;;;;;;;;;4972284;28;20207;-86
2023/07/07 06:04:35;;;;;;;4.60;4.07;;;;;;;;;;4972196;28;20238;-86
2023/07/07 06:07:04;;;;;;;11.17;6.70;;;;;;;;;;4970740;28;20205;-86
2023/07/07 06:09:33;;;;;;;7.60;4.83;;;;;;;;;;4972101;28;20209;-86
2023/07/07 06:12:02;;;;;;;5.00;4.50;;;;;;;;;;4972205;28;20217;-86
2023/07/07 06:14:30;;;;;;;10.10;7.43;;;;;;;;;;4972079;28;20310;-86
2023/07/07 06:17:00;;;;;;;5.30;4.20;;;;;;;;;;4971049;28;20284;-86
2023/07/07 06:19:29;;;;;;;7.97;5.27;;;;;;;;;;4971634;28;20216;-86
2023/07/07 06:21:57;;;;;;;6.90;4.87;;;;;;;;;;4972062;28;20217;-85
2023/07/07 06:24:26;;;;;;;4.43;3.63;;;;;;;;;;4972270;28;20204;-86
2023/07/07 06:26:54;;;;;;;6.57;4.33;;;;;;;;;;4971025;28;20210;-86
2023/07/07 06:29:23;;;;;;;4.83;4.33;;;;;;;;;;4971703;28;20251;-87
2023/07/07 06:31:51;;;;;;;4.53;2.63;;;;;;;;;;4972057;28;20211;-86
2023/07/07 06:34:21;;;;;;;7.83;4.20;;;;;;;;;;4971615;28;20194;-86
2023/07/07 06:36:51;;;;;;;3.93;3.53;;;;;;;;;;4971379;28;20203;-86
2023/07/07 06:39:20;;;;;;;6.23;4.80;;;;;;;;;;4971866;28;20233;-87
2023/07/07 06:41:52;;;;;;;7.13;4.37;;;;;;;;;;4972090;28;20211;-86
2023/07/07 06:44:21;;;;;;;5.60;4.47;;;;;;;;;;4971134;28;20202;-85
2023/07/07 06:46:50;;;;;;;5.57;4.00;;;;;;;;;;4971805;28;20215;-86
2023/07/07 06:49:18;;;;;;;5.67;3.87;;;;;;;;;;4971403;28;20247;-86
2023/07/07 06:51:48;;;;;;;5.40;4.10;;;;;;;;;;4970831;28;20204;-86
2023/07/07 06:54:17;;;;;;;5.60;3.43;;;;;;;;;;4971408;28;20327;-86
2023/07/07 06:56:46;;;;;;;6.73;3.83;;;;;;;;;;4971538;28;20251;-86
2023/07/07 06:59:15;;;;;;;6.40;3.50;;;;;;;;;;4970922;28;20204;-86
2023/07/07 07:01:43;;;;;;;6.90;4.20;;;;;;;;;;4970860;28;20207;-87
2023/07/07 07:04:12;;;;;;;3.00;2.70;;;;;;;;;;4971069;28;20286;-86
2023/07/07 07:06:42;;;;;;;4.33;2.67;;;;;;;;;;4971567;28;20223;-86
2023/07/07 07:09:14;;;;;;;4.97;4.43;;;;;;;;;;4971044;28;20223;-86
2023/07/07 07:11:42;;;;;;;5.47;3.57;;;;;;;;;;4970815;28;20204;-86
2023/07/07 07:14:15;;;;;;;4.70;3.70;;;;;;;;;;4971784;28;20220;-86
2023/07/07 07:16:45;;;;;;;3.50;3.20;;;;;;;;;;4970421;28;20228;-86
2023/07/07 07:19:13;;;;;;;4.73;3.30;;;;;;;;;;4970758;28;20201;-86
2023/07/07 07:21:42;;;;;;;5.20;3.47;;;;;;;;;;4971346;28;20202;-86
2023/07/07 07:24:11;;;;;;;6.17;3.40;;;;;;;;;;4971466;28;20211;-86
2023/07/07 07:26:41;;;;;;;4.33;2.87;;;;;;;;;;4971052;28;20201;-86
2023/07/07 07:29:12;;;;;;;5.30;3.17;;;;;;;;;;4970011;28;20231;-86
2023/07/07 07:31:40;;;;;;;3.03;2.30;;;;;;;;;;4970581;28;20208;-86
2023/07/07 07:34:23;;;;;;;3.90;2.67;;;;;;;;;;4970556;28;20209;-86
2023/07/07 07:36:54;;;;;;;4.03;3.27;;;;;;;;;;4970331;28;20235;-86
2023/07/07 07:39:23;;;;;;;4.57;2.07;;;;;;;;;;4970359;28;20293;-86
2023/07/07 07:41:56;;;;;;;3.20;1.80;;;;;;;;;;4970919;28;20199;-86
2023/07/07 07:44:25;;;;;;;3.53;2.90;;;;;;;;;;4970356;28;20218;-86
2023/07/07 07:46:58;;;;;;;5.67;3.07;;;;;;;;;;4970948;28;20234;-86
2023/07/07 07:49:28;;;;;;;4.27;2.73;;;;;;;;;;4970885;28;20208;-86
2023/07/07 07:51:57;;;;;;;2.70;2.43;;;;;;;;;;4970291;28;20258;-86
2023/07/07 07:54:26;;;;;;;6.03;3.73;;;;;;;;;;4970370;28;20240;-86
2023/07/07 07:56:56;;;;;;;3.50;2.17;;;;;;;;;;4970227;28;20222;-86
2023/07/07 07:59:25;;;;;;;2.40;1.70;;;;;;;;;;4970207;28;20210;-87
2023/07/07 08:01:54;;;;;;;5.20;3.00;;;;;;;;;;4969898;28;20210;-86
2023/07/07 08:04:23;;;;;;;4.70;3.00;;;;;;;;;;4970169;28;20329;-86
2023/07/07 08:06:52;;;;;;;9.73;3.20;;;;;;;;;;4970353;28;20195;-86
2023/07/07 08:09:24;;;;;;;4.53;2.80;;;;;;;;;;4970199;28;20268;-86
2023/07/07 08:11:55;;;;;;;6.37;2.70;;;;;;;;;;4970215;28;20207;-86
2023/07/07 08:14:30;;;;;;;1.37;1.20;;;;;;;;;;4970266;28;20221;-85
2023/07/07 08:17:01;;;;;;;2.10;1.37;;;;;;;;;;4969818;28;20229;-85
2023/07/07 08:19:31;;;;;;;1.80;1.70;;;;;;;;;;4969492;28;20247;-86
2023/07/07 08:22:00;;;;;;;5.00;2.50;;;;;;;;;;4970004;28;20204;-86
2023/07/07 08:24:30;;;;;;;3.73;2.40;;;;;;;;;;4969614;28;20209;-85
2023/07/07 08:26:59;;;;;;;4.20;2.20;;;;;;;;;;4970094;28;20205;-86
2023/07/07 08:29:49;;;;;;;4.13;2.17;;;;;;;;;;4971075;28;20298;-86
2023/07/07 08:32:21;;;;;;;4.77;3.07;;;;;;;;;;4973007;28;20201;-86
2023/07/07 08:34:50;;;;;;;2.13;1.77;;;;;;;;;;4974485;28;20204;-86
2023/07/07 08:37:22;;;;;;;5.90;2.57;;;;;;;;;;4973774;28;20225;-86
2023/07/07 08:39:51;;;;;;;4.63;2.97;;;;;;;;;;4973771;28;20202;-86
2023/07/07 08:42:24;;;;;;;0.63;0.60;;;;;;;;;;4973787;28;20298;-86
2023/07/07 08:44:54;;;;;;;3.80;2.37;;;;;;;;;;4973515;28;20201;-86
2023/07/07 08:47:44;;;;;;;2.93;2.20;;;;;;;;;;4974163;28;20244;-86
2023/07/07 08:50:15;;;;;;;4.13;1.50;;;;;;;;;;4978215;28;20308;-86
2023/07/07 08:53:00;;;;;;;3.73;2.77;;;;;;;;;;4973832;28;20213;-86
2023/07/07 08:55:45;;;;;;;6.00;2.57;;;;;;;;;;4973103;28;20207;-85
2023/07/07 08:58:18;;;;;;;4.03;2.20;;;;;;;;;;4972760;28;20207;-86
2023/07/07 09:01:02;;;;;;;3.77;1.83;;;;;;;;;;4972720;28;20221;-86
2023/07/07 09:03:38;;;;;;;4.07;2.40;;;;;;;;;;4972170;28;20230;-86
2023/07/07 09:06:17;;;;;;;2.00;1.60;;;;;;;;;;4971562;28;20209;-85
2023/07/07 09:08:48;;;;;;;5.33;3.00;;;;;;;;;;4973023;28;20210;-86
2023/07/07 09:11:21;;;;;;;3.40;2.47;;;;;;;;;;4972822;28;20221;-86
2023/07/07 09:13:51;;;;;;;7.37;2.33;;;;;;;;;;4972823;28;20206;-86
2023/07/07 09:16:23;;;;;;;3.03;1.63;;;;;;;;;;4972517;28;20222;-86
2023/07/07 09:18:54;;;;;;;0.83;0.50;;;;;;;;;;4973254;28;20260;-86
2023/07/07 09:21:28;;;;;;;2.20;1.60;;;;;;;;;;4973073;28;20203;-86
2023/07/07 09:23:59;;;;;;;4.93;2.33;;;;;;;;;;4973980;28;20212;-86
2023/07/07 09:26:30;;;;;;;4.87;1.93;;;;;;;;;;4973865;28;20274;-86
2023/07/07 09:28:59;;;;;;;2.23;1.33;;;;;;;;;;4973506;28;20235;-86
2023/07/07 09:31:32;;;;;;;1.23;1.10;;;;;;;;;;4973470;28;20206;-86
2023/07/07 09:34:03;;;;;;;3.87;2.47;;;;;;;;;;4973484;28;20201;-86
2023/07/07 09:36:35;;;;;;;3.43;2.70;;;;;;;;;;4972987;28;20228;-86
2023/07/07 09:39:12;;;;;;;2.57;2.17;;;;;;;;;;4972988;28;20209;-86
2023/07/07 09:41:47;;;;;;;3.13;2.20;;;;;;;;;;4972510;28;20258;-86
2023/07/07 09:44:24;;;;;;;4.40;2.60;;;;;;;;;;4973017;28;20222;-86
2023/07/07 09:46:57;;;;;;;2.23;1.77;;;;;;;;;;4973577;28;20208;-86
2023/07/07 09:49:30;;;;;;;3.77;2.07;;;;;;;;;;4973744;28;20246;-87
2023/07/07 09:52:01;;;;;;;1.00;0.93;;;;;;;;;;4973253;28;20202;-86
2023/07/07 09:54:32;;;;;;;1.70;1.50;;;;;;;;;;4972851;28;20208;-86
2023/07/07 09:57:03;;;;;;;2.43;1.47;;;;;;;;;;4973129;28;20235;-87
2023/07/07 09:59:34;;;;;;;0.40;0.40;;;;;;;;;;4973320;28;20217;-87
2023/07/07 10:02:10;;;;;;;3.80;2.53;;;;;;;;;;4972884;28;20238;-87
2023/07/07 10:04:43;;;;;;;3.00;2.37;;;;;;;;;;4972193;28;20246;-87
2023/07/07 10:07:13;;;;;;;4.43;2.77;;;;;;;;;;4972141;28;20200;-87
2023/07/07 10:09:42;;;;;;;4.27;2.60;;;;;;;;;;4972187;28;20216;-87
2023/07/07 10:12:12;;;;;;;3.90;2.73;;;;;;;;;;4972406;28;20204;-87
2023/07/07 10:14:51;;;;;;;3.60;2.30;;;;;;;;;;4972356;28;20205;-87
2023/07/07 10:17:29;;;;;;;2.87;2.30;;;;;;;;;;4972078;28;20216;-87
2023/07/07 10:19:59;;;;;;;3.90;2.00;;;;;;;;;;4971945;28;20209;-87
2023/07/07 10:22:28;;;;;;;3.17;1.30;;;;;;;;;;4971362;28;20280;-86
2023/07/07 10:24:56;;;;;;;1.03;1.03;;;;;;;;;;4971788;28;20209;-85
2023/07/07 10:27:26;;;;;;;3.87;2.10;;;;;;;;;;4971555;28;20230;-86
2023/07/07 10:29:57;;;;;;;2.77;2.40;;;;;;;;;;4971424;28;20303;-86
2023/07/07 10:32:28;;;;;;;2.33;1.73;;;;;;;;;;4971549;28;20212;-86
2023/07/07 10:35:00;;;;;;;4.27;2.57;;;;;;;;;;4972028;28;20201;-86
2023/07/07 10:37:30;;;;;;;4.03;1.70;;;;;;;;;;4971565;28;20222;-86
2023/07/07 10:40:00;;;;;;;2.83;1.93;;;;;;;;;;4971447;28;20208;-86
2023/07/07 10:42:31;;;;;;;5.10;3.00;;;;;;;;;;4971613;28;20215;-88
2023/07/07 10:45:02;;;;;;;4.43;2.23;;;;;;;;;;4971655;28;20210;-87
2023/07/07 10:47:33;;;;;;;4.60;2.37;;;;;;;;;;4971090;28;20218;-87
2023/07/07 10:50:02;;;;;;;1.70;1.40;;;;;;;;;;4971401;28;20261;-87
2023/07/07 10:52:38;;;;;;;4.23;1.50;;;;;;;;;;4970565;28;20202;-87
2023/07/07 10:55:16;;;;;;;2.53;1.40;;;;;;;;;;4971057;28;20216;-86
2023/07/07 10:57:50;;;;;;;0.63;0.63;;;;;;;;;;4970825;28;20221;-86
2023/07/07 11:00:29;;;;;;;4.57;2.93;;;;;;;;;;4971545;28;20208;-86
2023/07/07 11:03:11;;;;;;;2.50;1.40;;;;;;;;;;4971338;28;20205;-86
2023/07/07 11:05:52;;;;;;;2.67;1.67;;;;;;;;;;4970619;28;20241;-86
2023/07/07 11:08:38;;;;;;;3.83;1.40;;;;;;;;;;4971081;28;20209;-86
2023/07/07 11:11:14;;;;;;;1.13;0.93;;;;;;;;;;4971772;28;20202;-86
2023/07/07 11:13:58;;;;;;;1.80;1.70;;;;;;;;;;4971286;28;20246;-86
2023/07/07 11:16:29;;;;;;;2.53;1.00;;;;;;;;;;4971753;28;20203;-86
2023/07/07 11:19:05;;;;;;;2.40;1.73;;;;;;;;;;4971120;28;20278;-87
2023/07/07 11:21:36;;;;;;;2.73;1.93;;;;;;;;;;4970805;28;20201;-86
2023/07/07 11:24:11;;;;;;;2.50;1.70;;;;;;;;;;4971682;28;20252;-86
2023/07/07 11:27:05;;;;;;;2.37;1.80;;;;;;;;;;4971186;28;20215;-86
2023/07/07 11:29:39;;;;;;;2.90;2.50;;;;;;;;;;4970861;28;20205;-86
2023/07/07 11:32:17;;;;;;;2.10;1.60;;;;;;;;;;4970509;28;20236;-88
2023/07/07 11:34:55;;;;;;;0.83;0.83;;;;;;;;;;4971498;28;20184;-86
2023/07/07 11:37:30;;;;;;;1.70;1.30;;;;;;;;;;4971365;28;20325;-86
2023/07/07 11:40:17;;;;;;;2.00;1.70;;;;;;;;;;4970807;28;20292;-86
2023/07/07 11:42:56;;;;;;;1.40;1.30;;;;;;;;;;4971374;28;20304;-87
2023/07/07 11:45:31;;;;;;;1.43;1.33;;;;;;;;;;4971494;28;20254;-87
2023/07/07 11:48:08;;;;;;;0.70;0.70;;;;;;;;;;4970372;28;20208;-87
2023/07/07 11:50:48;;;;;;;3.33;1.40;;;;;;;;;;4971878;28;20249;-86
2023/07/07 11:53:23;;;;;;;1.63;1.50;;;;;;;;;;4971444;28;20239;-86
2023/07/07 11:55:58;;;;;;;5.03;1.67;;;;;;;;;;4971029;28;20217;-87
2023/07/07 11:58:31;;;;;;;3.00;1.53;;;;;;;;;;4970366;28;20226;-87
2023/07/07 12:01:13;;;;;;;2.30;1.80;;;;;;;;;;4970461;28;20210;-88
2023/07/07 12:03:45;;;;;;;3.70;1.93;;;;;;;;;;4971777;28;20306;-87
2023/07/07 12:06:19;;;;;;;2.43;1.50;;;;;;;;;;4973778;28;20207;-87
2023/07/07 12:08:51;;;;;;;2.03;1.80;;;;;;;;;;4974583;28;20213;-87
2023/07/07 12:11:22;;;;;;;4.17;1.80;;;;;;;;;;4973975;28;20249;-87
2023/07/07 12:13:56;;;;;;;2.67;2.03;;;;;;;;;;4973800;28;20207;-87
2023/07/07 12:16:25;;;;;;;1.97;1.67;;;;;;;;;;4974095;28;20203;-87
2023/07/07 12:18:56;;;;;;;3.47;1.73;;;;;;;;;;4973606;28;20223;-88
2023/07/07 12:21:28;;;;;;;3.07;1.20;;;;;;;;;;4974033;28;20299;-87
2023/07/07 12:23:59;;;;;;;1.97;1.80;;;;;;;;;;4973925;28;20198;-88
2023/07/07 12:26:29;;;;;;;0.73;0.63;;;;;;;;;;4974154;28;20204;-89
2023/07/07 12:29:01;;;;;;;4.03;1.40;;;;;;;;;;4973513;28;20219;-87
2023/07/07 12:31:30;;;;;;;3.33;1.97;;;;;;;;;;4973747;28;20204;-87
2023/07/07 12:33:59;;;;;;;3.87;2.23;;;;;;;;;;4973492;28;20200;-87
2023/07/07 12:36:30;;;;;;;1.80;1.63;;;;;;;;;;4973538;28;20239;-87
2023/07/07 12:38:59;;;;;;;4.13;1.47;;;;;;;;;;4972948;28;20236;-87
2023/07/07 12:41:29;;;;;;;3.83;1.07;;;;;;;;;;4973513;28;20205;-87
2023/07/07 12:43:59;;;;;;;1.60;1.30;;;;;;;;;;4973562;28;20301;-87
2023/07/07 12:46:32;;;;;;;1.17;0.83;;;;;;;;;;4973655;28;20213;-87
2023/07/07 12:49:01;;;;;;;2.73;1.60;;;;;;;;;;4973088;28;20275;-87
2023/07/07 12:51:32;;;;;;;2.60;2.17;;;;;;;;;;4973197;28;20197;-87
2023/07/07 12:54:01;;;;;;;1.50;1.40;;;;;;;;;;4973112;28;20279;-88
2023/07/07 12:56:31;;;;;;;4.67;1.33;;;;;;;;;;4972663;28;20265;-88
2023/07/07 12:59:01;;;;;;;6.00;2.10;;;;;;;;;;4973091;28;20225;-87
2023/07/07 13:01:31;;;;;;;2.87;1.67;;;;;;;;;;4973859;28;20195;-87
2023/07/07 13:04:02;;;;;;;4.87;1.70;;;;;;;;;;4973903;28;20243;-88
2023/07/07 13:06:47;;;;;;;7.13;1.87;;;;;;;;;;4973363;28;20232;-88
2023/07/07 13:09:24;;;;;;;2.50;1.50;;;;;;;;;;4974156;28;20206;-87
2023/07/07 13:12:02;;;;;;;1.77;1.50;;;;;;;;;;4973755;28;20213;-87
2023/07/07 13:14:40;;;;;;;2.03;1.83;;;;;;;;;;4972658;28;20269;-87
2023/07/07 13:17:12;;;;;;;4.10;3.07;;;;;;;;;;4973471;28;20214;-87
2023/07/07 13:19:50;;;;;;;1.70;1.30;;;;;;;;;;4973468;28;20277;-87
2023/07/07 13:22:28;;;;;;;2.87;2.17;;;;;;;;;;4973708;28;20212;-87
2023/07/07 13:24:58;;;;;;;2.80;2.17;;;;;;;;;;4973499;28;20214;-87
2023/07/07 13:27:30;;;;;;;1.70;0.87;;;;;;;;;;4973174;28;20226;-88
2023/07/07 13:30:02;;;;;;;2.30;1.60;;;;;;;;;;4972948;28;20215;-87
2023/07/07 13:32:33;;;;;;;2.80;1.57;;;;;;;;;;4971956;28;20192;-87
2023/07/07 13:35:04;;;;;;;3.60;1.77;;;;;;;;;;4972092;28;20200;-87
2023/07/07 13:37:39;;;;;;;2.87;1.97;;;;;;;;;;4973671;28;20204;-87
2023/07/07 13:40:13;;;;;;;3.20;2.00;;;;;;;;;;4972475;28;20312;-87
2023/07/07 13:42:49;;;;;;;1.93;1.23;;;;;;;;;;4973373;28;20200;-87
2023/07/07 13:45:20;;;;;;;2.17;1.10;;;;;;;;;;4973551;28;20206;-87
2023/07/07 13:47:56;;;;;;;1.50;1.20;;;;;;;;;;4972774;28;20199;-87
2023/07/07 13:50:28;;;;;;;1.67;1.20;;;;;;;;;;4973603;28;20240;-87
2023/07/07 13:52:59;;;;;;;2.47;2.10;;;;;;;;;;4972118;28;20230;-89
2023/07/07 13:55:30;;;;;;;1.43;1.30;;;;;;;;;;4972202;28;20201;-89
2023/07/07 13:58:01;;;;;;;1.23;1.13;;;;;;;;;;4972099;28;20200;-89
2023/07/07 14:00:34;;;;;;;2.80;1.70;;;;;;;;;;4972446;28;20229;-87
2023/07/07 14:03:04;;;;;;;2.20;2.00;;;;;;;;;;4971730;28;20197;-89
2023/07/07 14:05:36;;;;;;;2.13;1.93;;;;;;;;;;4971435;28;20240;-89
2023/07/07 14:08:15;;;;;;;3.53;1.50;;;;;;;;;;4972157;28;20220;-89
2023/07/07 14:10:49;;;;;;;3.33;2.40;;;;;;;;;;4972976;28;20213;-87
2023/07/07 14:13:19;;;;;;;3.97;2.70;;;;;;;;;;4971801;28;20303;-87
2023/07/07 14:15:51;;;;;;;2.07;1.87;;;;;;;;;;4972814;28;20205;-87
2023/07/07 14:18:28;;;;;;;6.40;2.00;;;;;;;;;;4972231;28;20205;-87
2023/07/07 14:20:58;;;;;;;3.73;2.07;;;;;;;;;;4972652;28;20239;-87
2023/07/07 14:23:36;;;;;;;2.90;1.33;;;;;;;;;;4971908;28;20212;-87
2023/07/07 14:29:23;;;;;;;3.33;1.83;;;;;;;;;;4971534;28;20293;-87
2023/07/07 14:31:52;;;;;;;2.03;1.23;;;;;;;;;;4971490;28;20201;-87
2023/07/07 14:34:24;;;;;;;0.87;0.87;;;;;;;;;;4972173;28;20207;-87
2023/07/07 14:36:56;;;;;;;1.60;1.33;;;;;;;;;;4971824;28;20205;-88
2023/07/07 14:39:28;;;;;;;2.57;2.20;;;;;;;;;;4971100;28;20219;-88
2023/07/07 14:42:11;;;;;;;5.83;1.33;;;;;;;;;;4971107;28;20200;-88
2023/07/07 14:44:41;;;;;;;3.20;1.87;;;;;;;;;;4971491;28;20211;-87
2023/07/07 14:47:10;;;;;;;3.57;1.63;;;;;;;;;;4971887;28;20251;-87
2023/07/07 14:49:38;;;;;;;2.27;2.07;;;;;;;;;;4970714;28;20197;-87
2023/07/07 14:52:16;;;;;;;3.10;2.20;;;;;;;;;;4971565;28;20215;-86
2023/07/07 14:54:46;;;;;;;2.77;1.53;;;;;;;;;;4971200;28;20211;-87
2023/07/07 14:57:17;;;;;;;2.87;1.63;;;;;;;;;;4971200;28;20208;-85
2023/07/07 14:59:45;;;;;;;1.77;1.47;;;;;;;;;;4970986;28;20213;-84
2023/07/07 15:02:29;;;;;;;6.50;1.80;;;;;;;;;;4971435;28;20247;-86
2023/07/07 15:05:12;;;;;;;2.00;1.53;;;;;;;;;;4971974;28;20302;-86
2023/07/07 15:07:41;;;;;;;3.73;2.40;;;;;;;;;;4970783;28;20212;-86
2023/07/07 15:10:11;;;;;;;3.10;1.70;;;;;;;;;;4970613;28;20213;-85